Time;durP1;ratioP1;P1;durP2;ratioP2;P2;SDS_P1;SDS_P2;PMS_P1;PMS_P2;Temp;Humidity;BMP_temperature;BMP_pressure;BME280_temperature;BME280_humidity;BME280_pressure;Samples;Min_cycle;Max_cycle;Signal;HPM_P1;HPM_P2
2023/07/10 00:01:01;;;;;;;5.65;4.15;;;;;;;;;;2584344;23;20367;-91
2023/07/10 00:02:01;;;;;;;4.30;3.67;;;;;;;;;;2585301;23;19996;-92
2023/07/10 00:03:07;;;;;;;5.55;4.50;;;;;;;;;;2518103;23;1165719;-92
2023/07/10 00:04:15;;;;;;;5.78;3.63;;;;;;;;;;2568929;23;20095;-92
2023/07/10 00:05:18;;;;;;;4.50;3.65;;;;;;;;;;2568151;23;20023;-92
2023/07/10 00:06:18;;;;;;;5.93;4.13;;;;;;;;;;2568340;23;20037;-91
2023/07/10 00:07:19;;;;;;;5.68;3.97;;;;;;;;;;2567040;23;20000;-91
2023/07/10 00:08:19;;;;;;;4.25;3.85;;;;;;;;;;2567507;23;19997;-91
2023/07/10 00:09:20;;;;;;;4.35;3.92;;;;;;;;;;2584380;23;20016;-91
2023/07/10 00:10:20;;;;;;;3.95;3.55;;;;;;;;;;2567186;23;20097;-91
2023/07/10 00:11:29;;;;;;;5.63;4.35;;;;;;;;;;2572249;23;20059;-91
2023/07/10 00:12:29;;;;;;;5.55;3.90;;;;;;;;;;2567892;23;20047;-91
2023/07/10 00:13:30;;;;;;;4.82;3.95;;;;;;;;;;2572109;23;20082;-91
2023/07/10 00:14:33;;;;;;;4.45;3.75;;;;;;;;;;2585441;23;20342;-91
2023/07/10 00:15:33;;;;;;;5.78;3.80;;;;;;;;;;2567538;23;19996;-90
2023/07/10 00:16:34;;;;;;;4.78;3.90;;;;;;;;;;2568111;23;20468;-90
2023/07/10 00:17:35;;;;;;;4.20;3.80;;;;;;;;;;2584547;23;20431;-90
2023/07/10 00:18:35;;;;;;;5.63;3.90;;;;;;;;;;2578444;22;20036;-90
2023/07/10 00:19:36;;;;;;;5.07;4.28;;;;;;;;;;2567608;23;19989;-90
2023/07/10 00:20:36;;;;;;;5.15;4.45;;;;;;;;;;2567454;23;20044;-90
2023/07/10 00:21:37;;;;;;;7.97;5.15;;;;;;;;;;2579651;22;20000;-90
2023/07/10 00:22:37;;;;;;;6.10;4.80;;;;;;;;;;2568317;23;20481;-91
2023/07/10 00:23:38;;;;;;;6.90;4.82;;;;;;;;;;2555666;23;20080;-91
2023/07/10 00:24:38;;;;;;;5.80;4.50;;;;;;;;;;2568282;23;20013;-92
2023/07/10 00:25:39;;;;;;;4.90;4.28;;;;;;;;;;2584807;23;20004;-93
2023/07/10 00:26:40;;;;;;;6.93;4.45;;;;;;;;;;2567573;23;20051;-93
2023/07/10 00:27:40;;;;;;;4.68;4.05;;;;;;;;;;2556247;23;20001;-92
2023/07/10 00:28:42;;;;;;;6.40;4.00;;;;;;;;;;2556044;23;20338;-92
2023/07/10 00:29:42;;;;;;;5.78;3.95;;;;;;;;;;2572385;23;20000;-92
2023/07/10 00:30:45;;;;;;;5.40;4.03;;;;;;;;;;2567867;23;20118;-93
2023/07/10 00:31:48;;;;;;;5.35;4.10;;;;;;;;;;2560202;23;19997;-92
2023/07/10 00:32:52;;;;;;;5.57;4.40;;;;;;;;;;2572986;23;19996;-93
2023/07/10 00:33:56;;;;;;;4.70;4.25;;;;;;;;;;2568149;23;20520;-90
2023/07/10 00:34:56;;;;;;;4.35;3.95;;;;;;;;;;2572770;23;20028;-92
2023/07/10 00:35:56;;;;;;;4.97;4.07;;;;;;;;;;2585866;23;19992;-91
2023/07/10 00:37:03;;;;;;;5.43;3.90;;;;;;;;;;2567891;23;19989;-90
2023/07/10 00:38:29;;;;;;;4.43;3.95;;;;;;;;;;2556843;23;20064;-90
2023/07/10 00:39:31;;;;;;;4.57;3.92;;;;;;;;;;2534786;23;20008;-93
2023/07/10 00:40:33;;;;;;;4.85;4.10;;;;;;;;;;2564172;23;20369;-92
2023/07/10 00:41:36;;;;;;;4.18;3.70;;;;;;;;;;2555796;23;19996;-93
2023/07/10 00:42:37;;;;;;;5.05;4.28;;;;;;;;;;2555914;23;20115;-92
2023/07/10 00:43:44;;;;;;;5.55;4.03;;;;;;;;;;2555441;23;20004;-93
2023/07/10 00:44:53;;;;;;;5.28;3.92;;;;;;;;;;2570252;23;20000;-92
2023/07/10 00:45:58;;;;;;;4.80;4.25;;;;;;;;;;2585941;23;20075;-92
2023/07/10 00:47:16;;;;;;;5.35;4.20;;;;;;;;;;2567983;23;20466;-91
2023/07/10 00:48:22;;;;;;;5.75;3.95;;;;;;;;;;2559742;23;20400;-96
2023/07/10 00:49:25;;;;;;;4.55;4.10;;;;;;;;;;2558521;23;20012;-95
2023/07/10 00:50:45;;;;;;;6.63;4.20;;;;;;;;;;2557860;23;20001;-96
2023/07/10 00:52:00;;;;;;;5.65;3.88;;;;;;;;;;2566542;23;20078;-95
2023/07/10 00:53:07;;;;;;;6.00;3.90;;;;;;;;;;2561326;23;19997;-95
2023/07/10 00:54:29;;;;;;;4.82;4.15;;;;;;;;;;2557460;23;20017;-91
2023/07/10 00:55:35;;;;;;;5.70;4.07;;;;;;;;;;2578006;23;20003;-91
2023/07/10 00:56:40;;;;;;;6.30;4.20;;;;;;;;;;2568618;23;20534;-91
2023/07/10 00:57:42;;;;;;;5.30;3.80;;;;;;;;;;2556862;23;20004;-92
2023/07/10 00:58:45;;;;;;;4.55;3.92;;;;;;;;;;2573166;23;20159;-92
2023/07/10 00:59:45;;;;;;;5.03;4.20;;;;;;;;;;2568494;23;20142;-92
2023/07/10 01:01:04;;;;;;;4.78;4.25;;;;;;;;;;2556550;23;20391;-92
2023/07/10 01:02:07;;;;;;;5.07;3.78;;;;;;;;;;2559759;23;19989;-92
2023/07/10 01:03:12;;;;;;;4.63;4.00;;;;;;;;;;2556529;23;20375;-92
2023/07/10 01:04:13;;;;;;;5.38;4.05;;;;;;;;;;2556568;23;19997;-92
2023/07/10 01:05:16;;;;;;;5.38;4.20;;;;;;;;;;2568558;23;20417;-92
2023/07/10 01:06:21;;;;;;;5.70;4.28;;;;;;;;;;2571085;23;19999;-92
2023/07/10 01:07:23;;;;;;;7.30;4.32;;;;;;;;;;2564417;23;20007;-90
2023/07/10 01:08:24;;;;;;;4.70;4.25;;;;;;;;;;2561186;23;20008;-92
2023/07/10 01:09:25;;;;;;;5.45;4.05;;;;;;;;;;2556305;23;20121;-91
2023/07/10 01:10:26;;;;;;;5.80;4.25;;;;;;;;;;2572996;23;19996;-91
2023/07/10 01:11:26;;;;;;;4.68;3.65;;;;;;;;;;2568719;23;20054;-92
2023/07/10 01:12:28;;;;;;;4.88;3.83;;;;;;;;;;2573022;23;19992;-92
2023/07/10 01:13:29;;;;;;;6.18;4.38;;;;;;;;;;2573763;23;20544;-92
2023/07/10 01:14:34;;;;;;;6.53;4.38;;;;;;;;;;2126085;23;10001292;-92
2023/07/10 01:15:35;;;;;;;9.07;7.18;;;;;;;;;;2572772;23;20087;-91
2023/07/10 01:16:35;;;;;;;6.82;5.78;;;;;;;;;;2573580;23;20051;-91
2023/07/10 01:17:36;;;;;;;6.95;4.78;;;;;;;;;;2568562;23;20059;-91
2023/07/10 01:18:38;;;;;;;13.38;10.15;;;;;;;;;;2572634;23;19999;-92
2023/07/10 01:19:41;;;;;;;10.43;8.73;;;;;;;;;;2573746;23;20047;-92
2023/07/10 01:20:46;;;;;;;8.48;6.65;;;;;;;;;;1711813;23;10001235;-91
2023/07/10 01:21:46;;;;;;;4.35;3.80;;;;;;;;;;2568271;23;20011;-91
2023/07/10 01:22:47;;;;;;;5.28;4.25;;;;;;;;;;2568273;23;19997;-91
2023/07/10 01:23:47;;;;;;;6.38;4.35;;;;;;;;;;2585467;23;20458;-92
2023/07/10 01:24:52;;;;;;;4.47;3.97;;;;;;;;;;2573223;23;20000;-92
2023/07/10 01:25:59;;;;;;;5.63;3.90;;;;;;;;;;2568364;23;20005;-92
2023/07/10 01:27:01;;;;;;;5.97;4.20;;;;;;;;;;2572448;23;19988;-92
2023/07/10 01:28:09;;;;;;;5.63;4.28;;;;;;;;;;2568037;23;19993;-92
2023/07/10 01:29:19;;;;;;;6.03;4.80;;;;;;;;;;2573611;23;20109;-91
2023/07/10 01:30:33;;;;;;;6.37;4.83;;;;;;;;;;2129474;23;10234491;-91
2023/07/10 01:31:33;;;;;;;8.57;4.60;;;;;;;;;;2568045;23;20001;-92
2023/07/10 01:32:34;;;;;;;5.18;4.68;;;;;;;;;;2567861;23;20466;-92
2023/07/10 01:33:42;;;;;;;5.55;4.50;;;;;;;;;;2580436;22;19992;-91
2023/07/10 01:34:53;;;;;;;6.35;4.88;;;;;;;;;;2583224;23;20046;-91
2023/07/10 01:35:59;;;;;;;;;;;;;;;;;;2568588;23;20063;-91
2023/07/10 01:37:04;;;;;;;15.25;10.73;;;;;;;;;;2568881;23;19912;-91
2023/07/10 01:38:04;;;;;;;6.93;5.10;;;;;;;;;;2581077;23;20000;-95
2023/07/10 01:39:10;;;;;;;8.77;5.28;;;;;;;;;;2582604;23;20057;-94
2023/07/10 01:40:16;;;;;;;5.72;4.80;;;;;;;;;;2569849;23;19992;-94
2023/07/10 01:41:23;;;;;;;8.00;5.07;;;;;;;;;;2557840;23;20004;-94
2023/07/10 01:42:23;;;;;;;6.95;4.55;;;;;;;;;;2558276;23;20035;-95
2023/07/10 01:43:23;;;;;;;5.28;4.78;;;;;;;;;;2557336;23;20403;-94
2023/07/10 01:44:42;;;;;;;5.78;5.13;;;;;;;;;;2569570;23;19997;-95
2023/07/10 01:45:46;;;;;;;7.30;4.78;;;;;;;;;;2586722;23;20004;-95
2023/07/10 01:46:49;;;;;;;8.15;6.13;;;;;;;;;;2569925;23;20004;-96
2023/07/10 01:47:52;;;;;;;6.82;4.90;;;;;;;;;;2569814;23;20105;-96
2023/07/10 01:50:09;;;;;;;5.97;4.47;;;;;;;;;;2550302;22;20072;-96
2023/07/10 01:51:09;;;;;;;5.05;3.85;;;;;;;;;;2567085;23;20394;-96
2023/07/10 01:52:13;;;;;;;4.68;4.10;;;;;;;;;;2557358;23;20080;-96
2023/07/10 01:53:14;;;;;;;5.50;4.10;;;;;;;;;;2558129;23;20162;-96
2023/07/10 01:54:16;;;;;;;17.30;5.15;;;;;;;;;;2570845;23;20087;-94
2023/07/10 01:55:19;;;;;;;6.63;5.35;;;;;;;;;;2565473;23;19993;-92
2023/07/10 01:56:21;;;;;;;12.40;8.00;;;;;;;;;;2554893;23;19997;-94
2023/07/10 01:57:23;;;;;;;10.07;7.35;;;;;;;;;;2545174;23;20004;-94
2023/07/10 01:58:23;;;;;;;8.14;6.20;;;;;;;;;;2123246;23;10252643;-93
2023/07/10 01:59:24;;;;;;;12.10;5.60;;;;;;;;;;2557215;23;20366;-93
2023/07/10 02:00:24;;;;;;;5.43;4.07;;;;;;;;;;2556992;23;20020;-94
2023/07/10 02:01:24;;;;;;;5.78;4.30;;;;;;;;;;2569871;23;20335;-94
2023/07/10 02:02:27;;;;;;;7.03;3.83;;;;;;;;;;2569510;23;20090;-94
2023/07/10 02:03:28;;;;;;;4.50;3.80;;;;;;;;;;2569214;23;20032;-94
2023/07/10 02:04:29;;;;;;;8.10;5.07;;;;;;;;;;2569919;23;20016;-94
2023/07/10 02:05:29;;;;;;;7.90;6.05;;;;;;;;;;2569695;23;20071;-94
2023/07/10 02:06:31;;;;;;;6.22;5.10;;;;;;;;;;2569802;23;20454;-94
2023/07/10 02:07:31;;;;;;;12.45;8.27;;;;;;;;;;2556910;23;20013;-95
2023/07/10 02:08:32;;;;;;;11.02;8.27;;;;;;;;;;2557091;23;20020;-94
2023/07/10 02:09:32;;;;;;;7.82;6.55;;;;;;;;;;2569680;23;19993;-95
2023/07/10 02:10:33;;;;;;;6.90;4.25;;;;;;;;;;2569621;23;20003;-94
2023/07/10 02:11:34;;;;;;;6.38;3.95;;;;;;;;;;2570130;23;19996;-94
2023/07/10 02:12:35;;;;;;;7.85;3.97;;;;;;;;;;2557315;23;20039;-94
2023/07/10 02:13:35;;;;;;;4.05;3.22;;;;;;;;;;2561608;23;20051;-95
2023/07/10 02:14:36;;;;;;;5.38;3.72;;;;;;;;;;2569448;23;20008;-93
2023/07/10 02:15:36;;;;;;;5.10;3.40;;;;;;;;;;2557167;23;20130;-95
2023/07/10 02:16:37;;;;;;;6.03;4.97;;;;;;;;;;2557176;23;20076;-95
2023/07/10 02:17:37;;;;;;;5.63;4.60;;;;;;;;;;2556997;23;20008;-94
2023/07/10 02:18:38;;;;;;;9.43;5.28;;;;;;;;;;2557323;23;20045;-95
2023/07/10 02:19:38;;;;;;;8.43;4.38;;;;;;;;;;2569803;23;20016;-95
2023/07/10 02:20:42;;;;;;;5.75;3.90;;;;;;;;;;2569784;23;20096;-95
2023/07/10 02:21:42;;;;;;;5.25;3.60;;;;;;;;;;2569671;23;19993;-96
2023/07/10 02:22:42;;;;;;;7.55;3.90;;;;;;;;;;2569766;23;20454;-95
2023/07/10 02:23:47;;;;;;;7.90;3.67;;;;;;;;;;2569508;23;20435;-96
2023/07/10 02:24:48;;;;;;;4.28;3.50;;;;;;;;;;2545797;23;20410;-95
2023/07/10 02:25:48;;;;;;;5.53;3.53;;;;;;;;;;2557179;23;20024;-96
2023/07/10 02:26:49;;;;;;;7.90;5.13;;;;;;;;;;2573674;23;20005;-94
2023/07/10 02:27:49;;;;;;;6.18;4.40;;;;;;;;;;2557073;23;20005;-94
2023/07/10 02:28:53;;;;;;;6.53;3.83;;;;;;;;;;2556877;23;20078;-94
2023/07/10 02:29:53;;;;;;;4.90;3.80;;;;;;;;;;2557296;23;20447;-94
2023/07/10 02:30:54;;;;;;;5.82;3.88;;;;;;;;;;2544938;23;19993;-94
2023/07/10 02:31:58;;;;;;;6.53;3.67;;;;;;;;;;2557155;23;20020;-95
2023/07/10 02:32:58;;;;;;;4.95;4.03;;;;;;;;;;2557203;23;20114;-95
2023/07/10 02:33:58;;;;;;;4.57;3.58;;;;;;;;;;2545928;23;20122;-93
2023/07/10 02:37:15;;;;;;;4.72;3.80;;;;;;;;;;2563266;23;20350;-95
2023/07/10 02:38:36;;;;;;;5.10;3.75;;;;;;;;;;2559571;23;19997;-95
2023/07/10 02:39:40;;;;;;;5.95;4.10;;;;;;;;;;2565855;23;20001;-95
2023/07/10 02:40:44;;;;;;;6.75;3.90;;;;;;;;;;2567829;23;20001;-92
2023/07/10 02:41:44;;;;;;;5.57;3.92;;;;;;;;;;2562926;23;20108;-94
2023/07/10 02:42:44;;;;;;;4.02;3.52;;;;;;;;;;2109337;23;10292374;-95
2023/07/10 02:43:45;;;;;;;5.22;4.05;;;;;;;;;;2572907;23;20013;-94
2023/07/10 02:44:45;;;;;;;5.38;4.03;;;;;;;;;;2573534;23;20004;-95
2023/07/10 02:45:48;;;;;;;4.88;3.92;;;;;;;;;;2568814;23;20016;-95
2023/07/10 02:46:49;;;;;;;13.63;8.00;;;;;;;;;;2562787;23;20004;-95
2023/07/10 02:47:49;;;;;;;9.63;6.72;;;;;;;;;;2569939;23;20458;-96
2023/07/10 02:48:49;;;;;;;7.05;5.10;;;;;;;;;;2557549;23;20022;-94
2023/07/10 02:49:52;;;;;;;6.25;4.38;;;;;;;;;;2557379;23;20005;-95
2023/07/10 02:50:53;;;;;;;4.45;4.03;;;;;;;;;;2561102;23;20013;-95
2023/07/10 02:51:53;;;;;;;7.72;3.97;;;;;;;;;;2545468;23;20439;-95
2023/07/10 02:52:56;;;;;;;4.70;4.13;;;;;;;;;;2557244;23;20108;-96
2023/07/10 02:53:57;;;;;;;4.90;3.65;;;;;;;;;;2573423;23;19989;-95
2023/07/10 02:54:57;;;;;;;5.57;3.80;;;;;;;;;;2569702;23;20135;-95
2023/07/10 02:55:58;;;;;;;5.20;3.75;;;;;;;;;;2569470;23;20483;-94
2023/07/10 02:57:01;;;;;;;3.80;3.40;;;;;;;;;;2556958;23;20001;-95
2023/07/10 02:58:02;;;;;;;6.22;3.33;;;;;;;;;;2559656;23;20043;-90
2023/07/10 02:59:03;;;;;;;5.57;3.63;;;;;;;;;;2110443;23;10429498;-91
2023/07/10 03:00:05;;;;;;;6.03;3.53;;;;;;;;;;2566965;23;20536;-90
2023/07/10 03:01:06;;;;;;;6.60;3.90;;;;;;;;;;2571265;23;20046;-90
2023/07/10 03:02:06;;;;;;;4.50;3.63;;;;;;;;;;2567972;23;19993;-93
2023/07/10 03:03:07;;;;;;;4.30;3.78;;;;;;;;;;2555282;23;20346;-92
2023/07/10 03:04:07;;;;;;;5.05;4.00;;;;;;;;;;2555131;23;20000;-90
2023/07/10 03:05:08;;;;;;;5.65;3.92;;;;;;;;;;2566607;23;20524;-90
2023/07/10 03:06:08;;;;;;;4.82;4.05;;;;;;;;;;2571765;23;20529;-90
2023/07/10 03:07:09;;;;;;;11.57;4.30;;;;;;;;;;2559898;23;19996;-90
2023/07/10 03:08:09;;;;;;;6.95;4.28;;;;;;;;;;2559712;23;20565;-90
2023/07/10 03:09:09;;;;;;;5.43;4.05;;;;;;;;;;2559872;23;20055;-90
2023/07/10 03:10:10;;;;;;;7.03;4.63;;;;;;;;;;2560665;23;20016;-90
2023/07/10 03:11:13;;;;;;;5.70;4.00;;;;;;;;;;2561324;23;20036;-92
2023/07/10 03:12:13;;;;;;;5.35;4.10;;;;;;;;;;2555962;23;20001;-90
2023/07/10 03:13:13;;;;;;;7.85;4.13;;;;;;;;;;2555745;23;19997;-90
2023/07/10 03:14:14;;;;;;;5.80;4.25;;;;;;;;;;2568451;23;20031;-90
2023/07/10 03:15:14;;;;;;;6.50;4.40;;;;;;;;;;2568219;23;20088;-90
2023/07/10 03:16:16;;;;;;;6.88;4.55;;;;;;;;;;2571856;23;20074;-89
2023/07/10 03:17:17;;;;;;;7.63;4.70;;;;;;;;;;2555933;23;19997;-90
2023/07/10 03:18:18;;;;;;;4.72;3.63;;;;;;;;;;2555761;23;20001;-90
2023/07/10 03:19:18;;;;;;;5.82;4.05;;;;;;;;;;2567716;23;20008;-90
2023/07/10 03:20:19;;;;;;;6.43;4.43;;;;;;;;;;2568377;23;20394;-90
2023/07/10 03:21:19;;;;;;;6.60;4.30;;;;;;;;;;2567008;23;20024;-90
2023/07/10 03:22:19;;;;;;;7.07;5.22;;;;;;;;;;2572717;23;19999;-90
2023/07/10 03:23:20;;;;;;;5.93;4.10;;;;;;;;;;2567487;23;20001;-90
2023/07/10 03:24:20;;;;;;;5.47;3.88;;;;;;;;;;2568271;23;20023;-90
2023/07/10 03:25:21;;;;;;;5.97;4.07;;;;;;;;;;2570725;23;20463;-90
2023/07/10 03:26:21;;;;;;;6.05;3.83;;;;;;;;;;2559922;23;20093;-90
2023/07/10 03:27:23;;;;;;;8.73;5.05;;;;;;;;;;2122398;23;10238727;-91
2023/07/10 03:28:24;;;;;;;5.57;4.40;;;;;;;;;;2567569;23;20000;-92
2023/07/10 03:29:24;;;;;;;6.50;3.85;;;;;;;;;;2567376;23;20004;-91
2023/07/10 03:30:25;;;;;;;6.95;4.57;;;;;;;;;;2568018;23;20005;-91
2023/07/10 03:31:25;;;;;;;8.32;4.55;;;;;;;;;;2561121;23;20001;-92
2023/07/10 03:32:26;;;;;;;9.23;4.70;;;;;;;;;;2575607;23;20004;-91
2023/07/10 03:33:26;;;;;;;6.03;4.53;;;;;;;;;;2574292;23;19992;-91
2023/07/10 03:34:26;;;;;;;11.15;5.10;;;;;;;;;;2560695;23;20001;-90
2023/07/10 03:35:27;;;;;;;7.07;4.45;;;;;;;;;;2567299;23;20007;-91
2023/07/10 03:36:28;;;;;;;9.15;4.57;;;;;;;;;;2571941;23;20027;-91
2023/07/10 03:37:28;;;;;;;5.97;4.30;;;;;;;;;;2567397;23;20086;-91
2023/07/10 03:38:29;;;;;;;7.97;4.65;;;;;;;;;;2568614;23;20074;-91
2023/07/10 03:39:30;;;;;;;8.30;5.20;;;;;;;;;;2572760;23;20020;-90
2023/07/10 03:40:30;;;;;;;7.80;4.68;;;;;;;;;;2556576;23;20009;-91
2023/07/10 03:41:32;;;;;;;6.57;4.28;;;;;;;;;;2556213;23;20004;-92
2023/07/10 03:42:32;;;;;;;6.47;4.70;;;;;;;;;;2572278;23;20078;-91
2023/07/10 03:43:32;;;;;;;5.05;4.00;;;;;;;;;;2555963;23;19997;-91
2023/07/10 03:44:33;;;;;;;7.22;4.68;;;;;;;;;;2555052;23;20061;-90
2023/07/10 03:45:33;;;;;;;5.93;4.88;;;;;;;;;;2555801;23;20025;-90
2023/07/10 03:46:34;;;;;;;7.03;4.68;;;;;;;;;;2560105;23;19993;-90
2023/07/10 03:47:34;;;;;;;6.22;4.60;;;;;;;;;;2560381;23;19992;-89
2023/07/10 03:48:34;;;;;;;9.43;4.60;;;;;;;;;;2567849;23;20481;-90
2023/07/10 03:49:35;;;;;;;7.38;4.30;;;;;;;;;;2572269;23;20087;-90
2023/07/10 03:50:35;;;;;;;6.15;4.45;;;;;;;;;;2548615;23;20071;-91
2023/07/10 03:51:35;;;;;;;7.18;4.78;;;;;;;;;;2543616;23;19998;-91
2023/07/10 03:52:36;;;;;;;9.45;5.22;;;;;;;;;;2556018;23;20003;-91
2023/07/10 03:53:36;;;;;;;8.13;5.38;;;;;;;;;;2568677;23;20020;-90
2023/07/10 03:54:37;;;;;;;8.65;5.15;;;;;;;;;;2543813;23;20002;-91
2023/07/10 03:55:47;;;;;;;8.98;4.18;;;;;;;;;;2543905;23;20012;-90
2023/07/10 03:56:47;;;;;;;12.52;5.28;;;;;;;;;;2560091;23;20694;-90
2023/07/10 03:57:47;;;;;;;8.73;5.22;;;;;;;;;;2555575;23;20001;-90
2023/07/10 03:58:49;;;;;;;13.23;5.38;;;;;;;;;;2543353;23;20092;-90
2023/07/10 03:59:49;;;;;;;8.35;5.70;;;;;;;;;;2547698;23;20004;-90
2023/07/10 04:00:50;;;;;;;9.18;5.50;;;;;;;;;;2555626;23;20119;-91
2023/07/10 04:01:51;;;;;;;10.25;5.43;;;;;;;;;;2555609;23;20009;-90
2023/07/10 04:02:51;;;;;;;14.80;6.22;;;;;;;;;;2555850;23;19993;-90
2023/07/10 04:03:54;;;;;;;9.38;5.65;;;;;;;;;;2555689;23;20052;-90
2023/07/10 04:04:55;;;;;;;12.88;6.28;;;;;;;;;;2543383;23;19990;-90
2023/07/10 04:05:58;;;;;;;11.88;6.43;;;;;;;;;;2543108;23;19998;-90
2023/07/10 04:06:58;;;;;;;9.05;5.13;;;;;;;;;;2559932;23;19993;-90
2023/07/10 04:07:58;;;;;;;8.45;5.60;;;;;;;;;;2560098;23;19993;-90
2023/07/10 04:08:59;;;;;;;9.63;5.35;;;;;;;;;;2543428;23;20092;-89
2023/07/10 04:09:59;;;;;;;9.10;4.75;;;;;;;;;;2547635;23;19989;-90
2023/07/10 04:11:03;;;;;;;10.70;5.35;;;;;;;;;;2560914;23;20001;-90
2023/07/10 04:12:04;;;;;;;13.32;4.88;;;;;;;;;;2554545;23;20085;-90
2023/07/10 04:13:04;;;;;;;10.43;5.47;;;;;;;;;;2554510;23;20004;-89
2023/07/10 04:14:06;;;;;;;6.93;4.93;;;;;;;;;;2558483;23;19993;-89
2023/07/10 04:15:06;;;;;;;9.77;4.85;;;;;;;;;;2559501;23;20001;-89
2023/07/10 04:16:15;;;;;;;10.65;5.45;;;;;;;;;;2559904;23;20000;-89
2023/07/10 04:17:15;;;;;;;7.22;4.90;;;;;;;;;;2554482;23;20482;-90
2023/07/10 04:18:15;;;;;;;7.15;5.05;;;;;;;;;;2555098;23;20105;-89
2023/07/10 04:19:16;;;;;;;6.38;4.80;;;;;;;;;;2562820;23;20004;-90
2023/07/10 04:20:16;;;;;;;10.35;5.65;;;;;;;;;;2548602;23;20001;-89
2023/07/10 04:21:23;;;;;;;6.68;4.97;;;;;;;;;;2545073;23;19993;-90
2023/07/10 04:22:23;;;;;;;7.03;5.05;;;;;;;;;;2554840;23;20079;-89
2023/07/10 04:23:24;;;;;;;12.18;4.90;;;;;;;;;;2559329;23;19993;-89
2023/07/10 04:24:24;;;;;;;7.55;5.03;;;;;;;;;;2554466;23;20103;-90
2023/07/10 04:25:25;;;;;;;7.30;5.20;;;;;;;;;;2555127;23;19997;-90
2023/07/10 04:26:29;;;;;;;11.02;5.28;;;;;;;;;;2560640;23;20135;-91
2023/07/10 04:27:30;;;;;;;7.93;5.50;;;;;;;;;;2555573;23;20007;-90
2023/07/10 04:28:30;;;;;;;8.02;4.55;;;;;;;;;;2556139;23;19997;-90
2023/07/10 04:29:30;;;;;;;6.75;5.15;;;;;;;;;;2558148;23;20005;-91
2023/07/10 04:30:34;;;;;;;9.68;5.00;;;;;;;;;;2560376;23;20110;-90
2023/07/10 04:31:34;;;;;;;7.75;4.55;;;;;;;;;;2560583;23;20094;-91
2023/07/10 04:32:35;;;;;;;6.78;4.88;;;;;;;;;;2555702;23;20410;-90
2023/07/10 04:33:36;;;;;;;9.48;5.40;;;;;;;;;;2543285;23;20016;-90
2023/07/10 04:34:36;;;;;;;6.65;4.82;;;;;;;;;;2530119;23;20028;-90
2023/07/10 04:35:38;;;;;;;7.18;5.00;;;;;;;;;;2543087;23;19993;-90
2023/07/10 04:36:39;;;;;;;9.25;5.90;;;;;;;;;;2555525;23;20052;-90
2023/07/10 04:37:39;;;;;;;;;;;;;;;;;;2120408;23;10371775;-91
2023/07/10 04:38:40;;;;;;;8.03;5.67;;;;;;;;;;2572128;23;20309;-90
2023/07/10 04:39:40;;;;;;;7.90;4.85;;;;;;;;;;2549015;23;19998;-90
2023/07/10 04:40:50;;;;;;;10.43;5.60;;;;;;;;;;2543285;23;20029;-90
2023/07/10 04:41:51;;;;;;;8.43;4.63;;;;;;;;;;2555649;23;20080;-90
2023/07/10 04:42:53;;;;;;;6.68;4.75;;;;;;;;;;2555220;23;20442;-90
2023/07/10 04:43:53;;;;;;;6.78;4.63;;;;;;;;;;2555369;23;20004;-91
2023/07/10 04:44:54;;;;;;;8.77;5.03;;;;;;;;;;2544494;23;20000;-90
2023/07/10 04:45:56;;;;;;;4.50;3.95;;;;;;;;;;2547008;23;20003;-90
2023/07/10 04:46:56;;;;;;;6.22;4.00;;;;;;;;;;2114650;23;10083505;-90
2023/07/10 04:47:57;;;;;;;6.80;4.30;;;;;;;;;;2554720;23;20636;-91
2023/07/10 04:48:57;;;;;;;5.18;4.57;;;;;;;;;;2570032;23;20000;-91
2023/07/10 04:49:58;;;;;;;12.07;4.88;;;;;;;;;;2560615;23;20482;-91
2023/07/10 04:51:03;;;;;;;6.20;3.85;;;;;;;;;;2556126;23;20001;-92
2023/07/10 04:52:04;;;;;;;6.47;4.25;;;;;;;;;;2560068;23;20076;-89
2023/07/10 04:53:04;;;;;;;6.13;4.07;;;;;;;;;;2560209;23;19989;-92
2023/07/10 04:54:04;;;;;;;8.18;4.15;;;;;;;;;;2568397;23;20411;-92
2023/07/10 04:55:05;;;;;;;5.28;3.63;;;;;;;;;;2568276;23;20004;-92
2023/07/10 04:56:10;;;;;;;5.45;3.70;;;;;;;;;;2555971;23;20323;-92
2023/07/10 04:57:10;;;;;;;4.50;3.78;;;;;;;;;;2544782;23;19997;-92
2023/07/10 04:58:11;;;;;;;7.70;4.10;;;;;;;;;;2544037;23;19999;-92
2023/07/10 04:59:11;;;;;;;10.98;3.97;;;;;;;;;;2559820;23;20426;-92
2023/07/10 05:00:12;;;;;;;7.85;3.65;;;;;;;;;;2568671;23;20003;-91
2023/07/10 05:01:12;;;;;;;6.05;3.80;;;;;;;;;;2556059;23;20064;-90
2023/07/10 05:02:13;;;;;;;5.63;4.28;;;;;;;;;;2558335;23;20005;-91
2023/07/10 05:03:13;;;;;;;5.57;4.38;;;;;;;;;;2573646;23;20027;-91
2023/07/10 05:04:13;;;;;;;7.38;4.25;;;;;;;;;;2531582;23;20017;-90
2023/07/10 05:05:14;;;;;;;5.25;3.85;;;;;;;;;;2547866;23;20004;-89
2023/07/10 05:06:18;;;;;;;5.10;4.07;;;;;;;;;;2561098;23;20351;-93
2023/07/10 05:07:19;;;;;;;6.35;3.60;;;;;;;;;;2568367;23;20001;-91
2023/07/10 05:08:21;;;;;;;7.20;4.88;;;;;;;;;;2570777;23;20004;-92
2023/07/10 05:09:22;;;;;;;5.03;4.53;;;;;;;;;;2570425;23;20087;-92
2023/07/10 05:10:22;;;;;;;6.18;3.80;;;;;;;;;;2560698;23;19985;-89
2023/07/10 05:11:25;;;;;;;6.20;3.90;;;;;;;;;;2552559;23;19997;-90
2023/07/10 05:12:26;;;;;;;4.60;3.58;;;;;;;;;;2538012;23;20329;-90
2023/07/10 05:13:28;;;;;;;5.88;3.88;;;;;;;;;;2547227;23;20044;-91
2023/07/10 05:14:28;;;;;;;5.25;3.72;;;;;;;;;;2560567;23;20451;-90
2023/07/10 05:15:29;;;;;;;5.40;3.70;;;;;;;;;;2555373;23;19997;-90
2023/07/10 05:16:30;;;;;;;5.75;3.50;;;;;;;;;;2555137;23;19993;-90
2023/07/10 05:17:30;;;;;;;4.57;3.20;;;;;;;;;;2554851;23;20064;-90
2023/07/10 05:18:31;;;;;;;6.15;3.72;;;;;;;;;;2561580;23;20482;-91
2023/07/10 05:19:33;;;;;;;3.95;3.30;;;;;;;;;;2556872;23;20024;-90
2023/07/10 05:20:33;;;;;;;4.03;3.28;;;;;;;;;;2559743;23;20024;-92
2023/07/10 05:21:42;;;;;;;4.56;3.17;;;;;;;;;;2477127;23;10421916;-91
2023/07/10 05:22:43;;;;;;;6.93;3.03;;;;;;;;;;2555309;23;20198;-91
2023/07/10 05:23:43;;;;;;;4.85;3.75;;;;;;;;;;2560124;23;20323;-91
2023/07/10 05:24:44;;;;;;;5.05;3.50;;;;;;;;;;2555757;23;20007;-89
2023/07/10 05:25:55;;;;;;;3.53;2.75;;;;;;;;;;2543212;23;20112;-89
2023/07/10 05:26:56;;;;;;;8.57;3.53;;;;;;;;;;2545672;23;19997;-89
2023/07/10 05:27:58;;;;;;;3.90;3.00;;;;;;;;;;2555481;23;20383;-90
2023/07/10 05:28:58;;;;;;;6.38;3.42;;;;;;;;;;2559678;23;20004;-91
2023/07/10 05:30:01;;;;;;;3.85;3.53;;;;;;;;;;2560584;23;20434;-91
2023/07/10 05:31:04;;;;;;;5.55;3.22;;;;;;;;;;2560148;23;20035;-90
2023/07/10 05:32:04;;;;;;;3.38;2.85;;;;;;;;;;2560046;23;20443;-90
2023/07/10 05:33:05;;;;;;;3.50;3.17;;;;;;;;;;2555687;23;20072;-90
2023/07/10 05:34:05;;;;;;;3.67;3.00;;;;;;;;;;2555321;23;20005;-91
2023/07/10 05:35:05;;;;;;;5.68;3.08;;;;;;;;;;2554593;23;20001;-90
2023/07/10 05:36:10;;;;;;;6.00;3.63;;;;;;;;;;2559994;23;20083;-91
2023/07/10 05:37:13;;;;;;;5.00;3.25;;;;;;;;;;2555374;23;20047;-90
2023/07/10 05:38:13;;;;;;;4.65;3.85;;;;;;;;;;2556233;23;20347;-91
2023/07/10 05:39:14;;;;;;;3.40;3.10;;;;;;;;;;2557054;23;20017;-91
2023/07/10 05:40:14;;;;;;;6.07;2.95;;;;;;;;;;2556314;23;20111;-91
2023/07/10 05:41:16;;;;;;;6.03;3.15;;;;;;;;;;2546739;23;20430;-91
2023/07/10 05:42:17;;;;;;;4.20;3.42;;;;;;;;;;2560753;23;20024;-91
2023/07/10 05:43:18;;;;;;;3.80;3.17;;;;;;;;;;2561261;23;20327;-92
2023/07/10 05:44:18;;;;;;;5.60;3.55;;;;;;;;;;2555657;23;19997;-92
2023/07/10 05:45:19;;;;;;;3.40;3.05;;;;;;;;;;2555985;23;20020;-92
2023/07/10 05:46:19;;;;;;;5.60;3.00;;;;;;;;;;2560330;23;20016;-92
2023/07/10 05:47:20;;;;;;;4.25;2.88;;;;;;;;;;2560960;23;20403;-90
2023/07/10 05:48:20;;;;;;;5.68;3.08;;;;;;;;;;2560773;23;19997;-90
2023/07/10 05:49:22;;;;;;;3.92;3.17;;;;;;;;;;2560563;23;20424;-90
2023/07/10 05:50:23;;;;;;;4.57;2.95;;;;;;;;;;2555868;23;20384;-90
2023/07/10 05:51:23;;;;;;;3.72;2.63;;;;;;;;;;2560462;23;19993;-90
2023/07/10 05:52:24;;;;;;;3.75;2.95;;;;;;;;;;2556732;23;20296;-91
2023/07/10 05:53:25;;;;;;;4.43;2.85;;;;;;;;;;2554769;23;20451;-90
2023/07/10 05:54:25;;;;;;;6.00;3.47;;;;;;;;;;2559102;23;20075;-90
2023/07/10 05:55:26;;;;;;;5.72;2.92;;;;;;;;;;2562096;23;20074;-90
2023/07/10 05:56:26;;;;;;;3.25;2.95;;;;;;;;;;2559351;23;20035;-89
2023/07/10 05:57:27;;;;;;;3.65;2.90;;;;;;;;;;2556359;23;20439;-90
2023/07/10 05:58:29;;;;;;;4.60;2.58;;;;;;;;;;2559561;23;20020;-90
2023/07/10 05:59:29;;;;;;;3.30;2.90;;;;;;;;;;2560531;23;19993;-90
2023/07/10 06:00:30;;;;;;;4.18;3.22;;;;;;;;;;2555249;23;20076;-91
2023/07/10 06:01:30;;;;;;;5.47;3.33;;;;;;;;;;2559268;23;20004;-91
2023/07/10 06:02:30;;;;;;;6.18;3.70;;;;;;;;;;2559621;23;20490;-90
2023/07/10 06:03:33;;;;;;;5.03;3.00;;;;;;;;;;2561068;23;20012;-90
2023/07/10 06:04:33;;;;;;;3.47;3.17;;;;;;;;;;2542221;23;20108;-90
2023/07/10 06:05:36;;;;;;;4.95;3.20;;;;;;;;;;2554171;23;19997;-90
2023/07/10 06:06:39;;;;;;;6.75;3.17;;;;;;;;;;2570276;23;19993;-91
2023/07/10 06:07:39;;;;;;;4.60;2.75;;;;;;;;;;2556138;23;20080;-90
2023/07/10 06:08:40;;;;;;;3.22;2.92;;;;;;;;;;2554103;23;20400;-90
2023/07/10 06:09:42;;;;;;;4.43;2.80;;;;;;;;;;2558263;23;20449;-91
2023/07/10 06:10:43;;;;;;;4.93;3.00;;;;;;;;;;2554467;23;20052;-90
2023/07/10 06:11:43;;;;;;;3.30;2.83;;;;;;;;;;2554454;23;20439;-91
2023/07/10 06:12:43;;;;;;;5.50;3.10;;;;;;;;;;2558855;23;20387;-91
2023/07/10 06:13:44;;;;;;;3.45;2.92;;;;;;;;;;2542721;23;20084;-91
2023/07/10 06:14:44;;;;;;;6.32;2.90;;;;;;;;;;2546933;23;20000;-91